createdAt,value
2019-03-23T00:00:29.251Z,20.05
2019-03-23T00:02:57.734Z,19.77
2019-03-23T00:05:25.987Z,23.80
2019-03-23T00:07:54.237Z,20.02
2019-03-23T00:10:22.518Z,20.55
2019-03-23T00:12:50.786Z,21.15
2019-03-23T00:15:22.229Z,21.40
2019-03-23T00:17:50.460Z,20.30
2019-03-23T00:20:18.738Z,21.70
2019-03-23T00:22:46.993Z,19.95
2019-03-23T00:25:15.254Z,22.00
2019-03-23T00:27:43.576Z,38.70
2019-03-23T00:30:13.479Z,23.42
2019-03-23T00:32:41.748Z,23.62
2019-03-23T00:35:10.021Z,20.57
2019-03-23T00:37:38.342Z,18.45
2019-03-23T00:40:10.046Z,20.75
2019-03-23T00:42:38.314Z,22.15
2019-03-23T00:45:08.015Z,18.62
2019-03-23T00:47:36.274Z,25.77
2019-03-23T00:50:05.667Z,28.57
2019-03-23T00:52:33.925Z,19.37
2019-03-23T00:55:02.211Z,21.33
2019-03-23T00:57:30.438Z,18.75
2019-03-23T00:59:58.687Z,21.10
2019-03-23T01:02:26.949Z,19.25
2019-03-23T01:04:55.182Z,20.82
2019-03-23T01:07:23.438Z,19.87
2019-03-23T01:09:51.690Z,19.10
2019-03-23T01:12:20.027Z,18.07
2019-03-23T01:14:48.397Z,19.35
2019-03-23T01:17:16.738Z,19.30
2019-03-23T01:19:45.159Z,21.07
2019-03-23T01:22:13.413Z,19.12
2019-03-23T01:24:41.696Z,18.98
2019-03-23T01:27:10.059Z,14.98
2019-03-23T01:29:38.357Z,17.95
2019-03-23T01:32:06.691Z,18.02
2019-03-23T01:34:34.956Z,15.95
2019-03-23T01:37:03.245Z,17.75
2019-03-23T01:39:31.545Z,18.27
2019-03-23T01:41:59.799Z,15.98
2019-03-23T01:44:28.075Z,18.02
2019-03-23T01:46:56.437Z,16.75
2019-03-23T01:49:24.704Z,16.42
2019-03-23T01:51:52.990Z,18.95
2019-03-23T01:54:21.282Z,22.37
2019-03-23T01:56:49.594Z,18.10
2019-03-23T01:59:17.832Z,17.65
2019-03-23T02:01:46.084Z,16.23
2019-03-23T02:04:14.424Z,16.55
2019-03-23T02:06:42.685Z,17.48
2019-03-23T02:09:10.966Z,16.52
2019-03-23T02:11:39.254Z,18.23
2019-03-23T02:14:07.528Z,14.98
2019-03-23T02:16:35.838Z,16.27
2019-03-23T02:19:04.112Z,16.15
2019-03-23T02:21:32.420Z,20.00
2019-03-23T02:24:00.654Z,19.37
2019-03-23T02:26:28.989Z,15.85
2019-03-23T02:28:57.304Z,16.75
2019-03-23T02:31:25.811Z,18.30
2019-03-23T02:33:54.105Z,17.37
2019-03-23T02:36:22.353Z,18.60
2019-03-23T02:38:50.601Z,16.70
2019-03-23T02:41:18.952Z,21.37
2019-03-23T02:43:47.242Z,16.62
2019-03-23T02:46:15.543Z,17.73
2019-03-23T02:48:43.800Z,16.23
2019-03-23T02:51:12.060Z,16.77
2019-03-23T02:53:40.320Z,14.70
2019-03-23T02:56:08.642Z,15.03
2019-03-23T02:58:37.005Z,16.07
2019-03-23T03:01:05.273Z,16.95
2019-03-23T03:03:33.731Z,16.20
2019-03-23T03:06:01.974Z,14.80
2019-03-23T03:08:30.255Z,15.72
2019-03-23T03:10:58.495Z,15.90
2019-03-23T03:13:26.778Z,14.23
2019-03-23T03:15:55.007Z,17.15
2019-03-23T03:18:23.282Z,15.68
2019-03-23T03:20:51.551Z,18.90
2019-03-23T03:23:19.850Z,14.63
2019-03-23T03:25:48.096Z,15.83
2019-03-23T03:28:16.394Z,17.23
2019-03-23T03:30:44.858Z,20.48
2019-03-23T03:33:13.169Z,15.78
2019-03-23T03:35:41.454Z,15.93
2019-03-23T03:38:09.726Z,20.37
2019-03-23T03:40:38.048Z,18.37
2019-03-23T03:43:06.311Z,16.95
2019-03-23T03:45:35.053Z,19.17
2019-03-23T03:48:03.341Z,19.37
2019-03-23T03:50:31.666Z,16.60
2019-03-23T03:52:59.941Z,17.87
2019-03-23T03:55:28.265Z,15.78
2019-03-23T03:57:56.517Z,18.87
2019-03-23T04:00:24.882Z,15.03
2019-03-23T04:02:53.201Z,15.13
2019-03-23T04:05:21.471Z,15.70
2019-03-23T04:07:49.781Z,17.65
2019-03-23T04:10:18.062Z,15.85
2019-03-23T04:12:46.309Z,15.70
2019-03-23T04:15:14.580Z,16.52
2019-03-23T04:17:42.841Z,16.48
2019-03-23T04:20:11.407Z,18.73
2019-03-23T04:22:39.642Z,17.23
2019-03-23T04:25:09.431Z,15.30
2019-03-23T04:27:37.679Z,14.00
2019-03-23T04:30:07.334Z,17.00
2019-03-23T04:32:35.616Z,17.42
2019-03-23T04:35:05.471Z,14.93
2019-03-23T04:37:33.733Z,16.90
2019-03-23T04:40:01.989Z,15.88
2019-03-23T04:42:30.278Z,17.15
2019-03-23T04:44:58.545Z,16.65
2019-03-23T04:47:26.836Z,17.42
2019-03-23T04:49:55.081Z,18.87
2019-03-23T04:52:23.420Z,15.80
2019-03-23T04:54:51.674Z,15.98
2019-03-23T04:57:19.916Z,15.75
2019-03-23T04:59:48.177Z,16.70
2019-03-23T05:02:16.450Z,15.23
2019-03-23T05:04:44.805Z,16.12
2019-03-23T05:07:13.109Z,15.63
2019-03-23T05:09:41.384Z,16.37
2019-03-23T05:12:09.637Z,15.65
2019-03-23T05:14:37.945Z,14.47
2019-03-23T05:17:06.233Z,14.15
2019-03-23T05:19:34.517Z,15.38
2019-03-23T05:22:02.853Z,16.27
2019-03-23T05:24:31.095Z,19.12
2019-03-23T05:26:59.381Z,18.48
2019-03-23T05:29:27.664Z,17.75
2019-03-23T05:31:55.962Z,17.30
2019-03-23T05:34:24.264Z,16.77
2019-03-23T05:36:52.610Z,15.90
2019-03-23T05:39:20.868Z,17.42
2019-03-23T05:41:49.182Z,15.85
2019-03-23T05:44:17.513Z,17.75
2019-03-23T05:46:45.793Z,17.20
2019-03-23T05:49:14.056Z,13.98
2019-03-23T05:51:42.311Z,14.47
2019-03-23T05:54:10.592Z,14.98
2019-03-23T05:56:38.835Z,17.92
2019-03-23T05:59:07.090Z,15.70
2019-03-23T06:01:35.378Z,16.90
2019-03-23T06:04:03.665Z,13.30
2019-03-23T06:06:31.952Z,14.33
2019-03-23T06:09:00.242Z,16.77
2019-03-23T06:11:28.572Z,15.10
2019-03-23T06:13:56.862Z,14.33
2019-03-23T06:16:25.254Z,13.35
2019-03-23T06:18:53.495Z,18.57
2019-03-23T06:21:21.761Z,16.10
2019-03-23T06:23:50.015Z,15.00
2019-03-23T06:26:18.294Z,14.50
2019-03-23T06:28:46.591Z,15.72
2019-03-23T06:31:14.870Z,14.38
2019-03-23T06:33:43.495Z,16.87
2019-03-23T06:36:11.784Z,15.85
2019-03-23T06:38:40.055Z,16.02
2019-03-23T06:41:11.040Z,14.70
2019-03-23T06:43:39.346Z,13.70
2019-03-23T06:46:07.613Z,15.10
2019-03-23T06:48:35.896Z,15.13
2019-03-23T06:51:04.211Z,13.28
2019-03-23T06:53:32.463Z,14.95
2019-03-23T06:56:00.720Z,13.03
2019-03-23T06:58:28.966Z,13.50
2019-03-23T07:00:57.497Z,17.12
2019-03-23T07:03:26.147Z,17.87
2019-03-23T07:05:54.526Z,14.13
2019-03-23T07:08:31.601Z,11.95
2019-03-23T07:10:55.801Z,19.05
2019-03-23T07:13:24.192Z,14.45
2019-03-23T07:15:52.530Z,13.93
2019-03-23T07:18:34.671Z,13.08
2019-03-23T07:21:06.134Z,14.43
2019-03-23T07:23:36.710Z,12.78
2019-03-23T07:26:06.106Z,13.90
2019-03-23T07:31:34.452Z,12.70
2019-03-23T07:34:09.508Z,14.03
2019-03-23T07:36:37.429Z,13.68
2019-03-23T07:39:11.533Z,14.60
2019-03-23T07:41:39.882Z,13.03
2019-03-23T07:44:11.172Z,16.65
2019-03-23T07:46:39.563Z,16.23
2019-03-23T07:49:07.981Z,13.58
2019-03-23T07:51:36.349Z,15.80
2019-03-23T07:54:06.434Z,17.50
2019-03-23T07:56:34.782Z,13.88
2019-03-23T07:59:03.088Z,11.48
2019-03-23T08:01:31.450Z,12.88
2019-03-23T08:03:59.791Z,17.40
2019-03-23T08:06:28.070Z,18.07
2019-03-23T08:08:59.294Z,14.58
2019-03-23T08:11:27.641Z,15.10
2019-03-23T08:13:55.925Z,15.50
2019-03-23T08:16:24.585Z,13.58
2019-03-23T08:18:53.043Z,16.25
2019-03-23T08:21:21.279Z,17.95
2019-03-23T08:23:49.625Z,18.05
2019-03-23T08:26:17.968Z,18.42
2019-03-23T08:28:46.268Z,21.35
2019-03-23T08:31:16.392Z,20.45
2019-03-23T08:33:44.859Z,19.20
2019-03-23T08:36:13.128Z,21.48
2019-03-23T08:38:41.413Z,27.10
2019-03-23T08:41:09.658Z,22.25
2019-03-23T08:43:37.916Z,21.75
2019-03-23T08:46:10.652Z,21.82
2019-03-23T08:48:39.005Z,22.93
2019-03-23T08:51:07.316Z,19.80
2019-03-23T08:53:35.680Z,19.75
2019-03-23T08:56:04.032Z,18.92
2019-03-23T08:58:34.513Z,24.65
2019-03-23T09:01:02.786Z,31.25
2019-03-23T09:03:31.131Z,29.32
2019-03-23T09:05:59.386Z,23.02
2019-03-23T09:08:27.675Z,21.20
2019-03-23T09:10:55.976Z,22.82
2019-03-23T09:13:24.241Z,23.15
2019-03-23T09:15:52.503Z,23.27
2019-03-23T09:18:20.821Z,23.27
2019-03-23T09:20:49.169Z,22.80
2019-03-23T09:23:17.494Z,27.00
2019-03-23T09:25:45.884Z,22.50
2019-03-23T09:28:14.356Z,22.98
2019-03-23T09:30:42.609Z,27.93
2019-03-23T09:33:12.736Z,31.12
2019-03-23T09:35:47.054Z,32.13
2019-03-23T09:38:15.361Z,28.67
2019-03-23T09:40:43.776Z,36.13
2019-03-23T09:43:12.044Z,35.00
2019-03-23T09:45:40.341Z,33.20
2019-03-23T09:48:08.713Z,31.00
2019-03-23T09:50:37.042Z,30.70
2019-03-23T09:53:05.526Z,34.05
2019-03-23T09:55:35.828Z,36.53
2019-03-23T09:58:04.998Z,31.90
2019-03-23T10:00:49.439Z,32.83
2019-03-23T10:03:15.224Z,32.80
2019-03-23T10:05:46.307Z,32.25
2019-03-23T10:08:14.796Z,32.08
2019-03-23T10:10:43.176Z,32.75
2019-03-23T10:13:11.501Z,34.67
2019-03-23T10:15:39.942Z,32.13
2019-03-23T10:18:08.243Z,29.30
2019-03-23T10:20:36.620Z,32.35
2019-03-23T10:23:08.262Z,31.87
2019-03-23T10:25:42.374Z,34.45
2019-03-23T10:28:10.616Z,35.03
2019-03-23T10:30:40.593Z,30.77
2019-03-23T10:33:08.856Z,33.48
2019-03-23T10:35:37.146Z,34.73
2019-03-23T10:38:05.433Z,32.03
2019-03-23T10:40:33.694Z,29.60
2019-03-23T10:43:02.049Z,33.85
2019-03-23T10:45:30.330Z,33.45
2019-03-23T10:47:58.682Z,41.88
2019-03-23T10:50:26.990Z,40.03
2019-03-23T10:52:55.260Z,36.80
2019-03-23T10:55:23.614Z,35.52
2019-03-23T10:57:51.906Z,35.78
2019-03-23T11:00:20.172Z,33.63
2019-03-23T11:02:48.450Z,37.75
2019-03-23T11:05:16.799Z,34.05
2019-03-23T11:07:45.039Z,31.82
2019-03-23T11:10:13.932Z,35.08
2019-03-23T11:12:42.179Z,30.57
2019-03-23T11:15:10.665Z,32.93
2019-03-23T11:17:39.014Z,33.75
2019-03-23T11:20:12.153Z,34.60
2019-03-23T11:22:40.406Z,36.10
2019-03-23T11:25:08.683Z,36.10
2019-03-23T11:27:36.970Z,33.40
2019-03-23T11:30:07.045Z,30.80
2019-03-23T11:32:35.335Z,39.63
2019-03-23T11:35:04.867Z,36.63
2019-03-23T11:37:33.236Z,33.55
2019-03-23T11:40:01.525Z,33.28
2019-03-23T11:42:29.793Z,34.23
2019-03-23T11:44:58.128Z,32.80
2019-03-23T11:47:28.102Z,33.42
2019-03-23T11:49:56.370Z,34.45
2019-03-23T11:52:24.617Z,33.92
2019-03-23T11:54:52.870Z,30.95
2019-03-23T11:57:21.160Z,29.63
2019-03-23T11:59:49.431Z,30.82
2019-03-23T12:02:17.690Z,31.55
2019-03-23T12:04:45.984Z,37.13
2019-03-23T12:07:14.057Z,30.20
2019-03-23T12:09:42.349Z,29.95
2019-03-23T12:12:10.649Z,28.45
2019-03-23T12:14:39.092Z,35.92
2019-03-23T12:17:07.345Z,27.00
2019-03-23T12:19:35.593Z,28.38
2019-03-23T12:22:03.867Z,30.80
2019-03-23T12:24:32.325Z,35.03
2019-03-23T12:27:02.772Z,31.75
2019-03-23T12:29:31.107Z,31.07
2019-03-23T12:31:59.396Z,27.55
2019-03-23T12:34:27.626Z,26.30
2019-03-23T12:37:10.710Z,26.82
2019-03-23T12:39:39.021Z,36.03
2019-03-23T12:42:09.126Z,31.33
2019-03-23T12:44:37.391Z,35.03
2019-03-23T12:47:05.709Z,28.70
2019-03-23T12:49:34.158Z,27.93
2019-03-23T12:52:04.361Z,18.25
2019-03-23T12:54:32.590Z,31.25
2019-03-23T12:57:00.980Z,36.30
2019-03-23T12:59:29.436Z,31.73
2019-03-23T13:01:57.794Z,33.48
2019-03-23T13:04:26.068Z,34.73
2019-03-23T13:06:54.513Z,38.33
2019-03-23T13:09:27.068Z,34.08
2019-03-23T13:11:57.825Z,31.05
2019-03-23T13:14:26.057Z,28.98
2019-03-23T13:16:54.461Z,33.28
2019-03-23T13:19:22.714Z,44.15
2019-03-23T13:21:54.030Z,34.35
2019-03-23T13:24:22.731Z,37.95
2019-03-23T13:26:51.380Z,38.08
2019-03-23T13:29:21.331Z,34.13
2019-03-23T13:31:50.736Z,30.30
2019-03-23T13:34:19.017Z,29.42
2019-03-23T13:36:48.975Z,29.95
2019-03-23T13:39:17.361Z,31.25
2019-03-23T13:41:49.517Z,30.17
2019-03-23T13:44:19.779Z,30.35
2019-03-23T13:46:48.044Z,39.10
2019-03-23T13:49:16.388Z,38.60
2019-03-23T13:51:44.671Z,31.48
2019-03-23T13:54:12.942Z,30.20
2019-03-23T13:56:45.731Z,31.23
2019-03-23T13:59:11.274Z,29.92
2019-03-23T14:01:39.518Z,31.17
2019-03-23T14:04:08.027Z,29.75
2019-03-23T14:06:36.342Z,29.85
2019-03-23T14:09:05.936Z,30.68
2019-03-23T14:11:34.377Z,29.70
2019-03-23T14:14:02.676Z,30.27
2019-03-23T14:16:30.914Z,32.38
2019-03-23T14:18:59.175Z,30.55
2019-03-23T14:21:27.536Z,34.03
2019-03-23T14:23:55.818Z,32.40
2019-03-23T14:26:24.088Z,36.28
2019-03-23T14:28:52.358Z,39.63
2019-03-23T14:31:20.634Z,33.50
2019-03-23T14:33:48.953Z,31.37
2019-03-23T14:36:17.286Z,32.03
2019-03-23T14:38:45.538Z,32.73
2019-03-23T14:41:13.874Z,31.68
2019-03-23T14:43:42.175Z,31.42
2019-03-23T14:46:10.585Z,29.55
2019-03-23T14:48:38.850Z,30.37
2019-03-23T14:51:07.109Z,29.12
2019-03-23T14:53:35.394Z,30.55
2019-03-23T14:56:03.630Z,29.55
2019-03-23T14:58:31.918Z,29.52
2019-03-23T15:01:00.393Z,29.30
2019-03-23T15:03:28.665Z,31.55
2019-03-23T15:05:56.934Z,30.10
2019-03-23T15:08:25.186Z,30.65
2019-03-23T15:10:53.432Z,29.98
2019-03-23T15:13:21.752Z,30.23
2019-03-23T15:15:50.001Z,29.67
2019-03-23T15:18:18.250Z,29.90
2019-03-23T15:20:46.530Z,28.70
2019-03-23T15:23:14.872Z,28.80
2019-03-23T15:25:43.179Z,30.05
2019-03-23T15:28:11.430Z,29.45
2019-03-23T15:30:39.663Z,32.78
2019-03-23T15:33:08.008Z,32.48
2019-03-23T15:35:36.272Z,34.90
2019-03-23T15:38:04.534Z,35.28
2019-03-23T15:40:32.803Z,39.92
2019-03-23T15:43:01.083Z,36.35
2019-03-23T15:45:29.352Z,35.75
2019-03-23T15:47:57.621Z,36.40
2019-03-23T15:50:26.048Z,36.10
2019-03-23T15:52:54.291Z,37.73
2019-03-23T15:55:22.566Z,34.92
2019-03-23T15:57:50.839Z,37.08
2019-03-23T16:00:19.170Z,37.80
2019-03-23T16:02:47.451Z,38.38
2019-03-23T16:05:16.555Z,44.13
2019-03-23T16:07:44.915Z,41.20
2019-03-23T16:10:13.168Z,39.58
2019-03-23T16:12:41.402Z,41.00
2019-03-23T16:15:11.111Z,39.53
2019-03-23T16:17:39.368Z,38.13
2019-03-23T16:20:09.470Z,45.52
2019-03-23T16:22:37.808Z,43.00
2019-03-23T16:25:07.898Z,40.73
2019-03-23T16:27:36.168Z,39.23
2019-03-23T16:30:06.415Z,41.10
2019-03-23T16:32:35.325Z,40.05
2019-03-23T16:35:05.452Z,42.65
2019-03-23T16:37:33.752Z,39.75
2019-03-23T16:40:02.022Z,42.20
2019-03-23T16:42:30.271Z,37.88
2019-03-23T16:44:58.511Z,50.58
2019-03-23T16:47:26.819Z,65.03
2019-03-23T16:49:55.069Z,47.88
2019-03-23T16:52:23.332Z,44.25
2019-03-23T16:54:51.622Z,43.17
2019-03-23T16:57:19.992Z,48.08
2019-03-23T16:59:48.240Z,44.70
2019-03-23T17:02:16.491Z,44.15
2019-03-23T17:04:44.769Z,45.28
2019-03-23T17:07:13.020Z,44.05
2019-03-23T17:09:41.293Z,44.70
2019-03-23T17:12:09.605Z,44.88
2019-03-23T17:14:37.877Z,44.25
2019-03-23T17:17:06.148Z,47.38
2019-03-23T17:19:34.423Z,44.05
2019-03-23T17:22:02.689Z,45.52
2019-03-23T17:24:30.940Z,44.10
2019-03-23T17:26:59.252Z,45.15
2019-03-23T17:29:27.490Z,47.48
2019-03-23T17:31:55.724Z,45.33
2019-03-23T17:34:24.052Z,48.68
2019-03-23T17:36:52.322Z,46.45
2019-03-23T17:39:20.574Z,47.38
2019-03-23T17:41:48.829Z,47.43
2019-03-23T17:44:17.110Z,48.52
2019-03-23T17:46:45.386Z,51.53
2019-03-23T17:49:13.632Z,50.78
2019-03-23T17:51:41.895Z,48.75
2019-03-23T17:54:10.233Z,52.15
2019-03-23T17:56:38.510Z,51.10
2019-03-23T17:59:06.766Z,48.05
2019-03-23T18:01:35.402Z,50.67
2019-03-23T18:04:03.673Z,53.33
2019-03-23T18:06:31.946Z,51.73
2019-03-23T18:09:00.208Z,52.13
2019-03-23T18:11:28.459Z,51.25
2019-03-23T18:13:56.740Z,50.95
2019-03-23T18:16:24.981Z,52.98
2019-03-23T18:18:53.329Z,53.83
2019-03-23T18:21:21.586Z,50.98
2019-03-23T18:23:49.857Z,50.90
2019-03-23T18:26:18.129Z,53.80
2019-03-23T18:28:46.396Z,52.83
2019-03-23T18:31:14.700Z,49.55
2019-03-23T18:33:42.940Z,55.58
2019-03-23T18:36:11.201Z,72.47
2019-03-23T18:38:39.722Z,67.00
2019-03-23T18:41:07.971Z,65.75
2019-03-23T18:43:36.340Z,64.05
2019-03-23T18:46:06.719Z,52.98
2019-03-23T18:48:35.000Z,56.48
2019-03-23T18:51:03.269Z,55.73
2019-03-23T18:53:32.068Z,62.03
2019-03-23T18:56:00.313Z,56.40
2019-03-23T18:58:28.616Z,52.33
2019-03-23T19:00:56.867Z,56.20
2019-03-23T19:03:25.129Z,54.60
2019-03-23T19:05:53.749Z,53.80
2019-03-23T19:08:22.046Z,52.95
2019-03-23T19:10:50.372Z,51.28
2019-03-23T19:13:18.748Z,52.45
2019-03-23T19:15:46.993Z,57.90
2019-03-23T19:18:15.303Z,62.25
2019-03-23T19:20:43.577Z,55.28
2019-03-23T19:23:11.820Z,55.08
2019-03-23T19:25:40.113Z,59.67
2019-03-23T19:28:08.362Z,55.40
2019-03-23T19:30:36.632Z,62.50
2019-03-23T19:33:06.302Z,61.10
2019-03-23T19:35:34.906Z,53.90
2019-03-23T19:38:03.196Z,62.73
2019-03-23T19:40:31.518Z,55.90
2019-03-23T19:45:47.417Z,60.55
2019-03-23T19:48:15.764Z,60.70
2019-03-23T19:50:44.048Z,58.58
2019-03-23T19:53:12.885Z,93.95
2019-03-23T19:55:51.661Z,169.45
2019-03-23T19:58:19.983Z,82.82
2019-03-23T20:00:48.220Z,60.65
2019-03-23T20:03:19.175Z,59.93
2019-03-23T20:05:47.606Z,57.23
2019-03-23T20:08:15.909Z,59.18
2019-03-23T20:10:44.156Z,60.35
2019-03-23T20:13:12.535Z,58.23
2019-03-23T20:15:41.197Z,60.28
2019-03-23T20:18:09.573Z,58.42
2019-03-23T20:20:37.895Z,61.37
2019-03-23T20:23:06.174Z,57.03
2019-03-23T20:25:34.475Z,57.13
2019-03-23T20:28:02.835Z,53.40
2019-03-23T20:30:31.251Z,54.53
2019-03-23T20:32:59.522Z,55.58
2019-03-23T20:35:27.809Z,49.85
2019-03-23T20:37:56.048Z,51.88
2019-03-23T20:40:24.325Z,48.15
2019-03-23T20:42:52.681Z,53.15
2019-03-23T20:45:28.447Z,54.55
2019-03-23T20:47:56.955Z,53.65
2019-03-23T20:50:25.214Z,51.05
2019-03-23T20:52:54.007Z,50.17
2019-03-23T20:55:29.758Z,53.02
2019-03-23T20:57:58.026Z,48.28
2019-03-23T21:00:26.357Z,47.20
2019-03-23T21:02:54.703Z,44.18
2019-03-23T21:05:33.159Z,42.80
2019-03-23T21:07:53.127Z,43.70
2019-03-23T21:10:21.391Z,42.90
2019-03-23T21:12:49.661Z,38.65
2019-03-23T21:15:17.929Z,41.10
2019-03-23T21:17:51.488Z,37.55
2019-03-23T21:20:16.210Z,39.78
2019-03-23T21:22:44.471Z,44.40
2019-03-23T21:25:12.731Z,49.25
2019-03-23T21:27:40.995Z,56.15
2019-03-23T21:30:14.579Z,37.45
2019-03-23T21:32:42.876Z,34.65
2019-03-23T21:35:11.193Z,40.73
2019-03-23T21:37:39.656Z,38.35
2019-03-23T21:40:07.931Z,35.95
2019-03-23T21:42:36.204Z,36.00
2019-03-23T21:48:09.091Z,36.28
2019-03-23T21:53:32.078Z,34.73
2019-03-23T21:56:00.670Z,33.10
2019-03-23T21:58:28.947Z,37.05
2019-03-23T22:00:57.285Z,34.35
2019-03-23T22:03:30.599Z,34.20
2019-03-23T22:06:03.221Z,33.18
2019-03-23T22:08:33.415Z,35.05
2019-03-23T22:11:01.854Z,31.07
2019-03-23T22:13:30.211Z,36.35
2019-03-23T22:15:58.491Z,32.75
2019-03-23T22:22:00.350Z,33.78
2019-03-23T22:24:51.524Z,35.08
2019-03-23T22:27:19.777Z,32.50
2019-03-23T22:29:48.070Z,33.88
2019-03-23T22:32:16.416Z,38.20
2019-03-23T22:34:44.688Z,31.95
2019-03-23T22:37:12.970Z,44.23
2019-03-23T22:39:42.944Z,52.70
2019-03-23T22:45:00.370Z,37.05
2019-03-23T22:47:28.664Z,35.40
2019-03-23T22:49:56.912Z,33.23
2019-03-23T22:52:25.215Z,34.13
2019-03-23T22:54:53.562Z,39.38
2019-03-23T22:57:21.890Z,35.95
2019-03-23T22:59:57.922Z,32.58
2019-03-23T23:02:26.284Z,33.53
2019-03-23T23:04:54.612Z,32.23
2019-03-23T23:07:31.635Z,37.15
2019-03-23T23:13:07.798Z,36.58
2019-03-23T23:18:33.216Z,43.35
2019-03-23T23:21:03.259Z,36.50
2019-03-23T23:23:31.571Z,34.53
2019-03-23T23:25:59.883Z,33.95
2019-03-23T23:28:28.274Z,39.40
2019-03-23T23:30:56.587Z,32.88
2019-03-23T23:33:24.902Z,33.80
2019-03-23T23:35:53.195Z,34.63
2019-03-23T23:38:26.158Z,39.60
2019-03-23T23:40:54.415Z,52.60
2019-03-23T23:43:22.708Z,43.90
2019-03-23T23:45:51.003Z,36.95
2019-03-23T23:48:20.936Z,37.50
2019-03-23T23:50:49.278Z,38.38
2019-03-23T23:53:17.571Z,36.77
2019-03-23T23:55:45.819Z,34.73
2019-03-23T23:58:14.197Z,37.03
